Chico, Texas
Current Conditions -  °F | °C
As of 8:15 PM on Thursday 18 Dec 2014 (Local Time) from KXBP Reporting Station
Overcast Overcast  
Wind Chill: 47°   Ceiling: 1300
Heat Index: 48°   Visibility: 10mi
Dew Point: 47°   Wind: 5mph
Humidity: 95%   Direction: 80°E
Pressure: 30.17"   Gusts: NA
Location:  33.3°N, 97.8°W
Report Text: KXBP 190215Z AUTO 08004KT 10SM BKN013 OVC020 09/08 A3017 RMK AO2 T00910084
Loading
Personal Weather Stations






























Interactive Weather Map New forecast layout! Learn more

10-Day Weather Forecast

Advertisements
Track Severe Weather on mobile